sensor_id;sensor_type;location;lat;lon;timestamp;P1;durP1;ratioP1;P2;durP2;ratioP2
11504;SDS011;5809;53.262;10.408;2022-09-23T00:00:59;2.83;;;1.70;;
11504;SDS011;5809;53.262;10.408;2022-09-23T00:03:28;5.40;;;1.50;;
11504;SDS011;5809;53.262;10.408;2022-09-23T00:05:58;2.43;;;1.60;;
11504;SDS011;5809;53.262;10.408;2022-09-23T00:08:26;1.93;;;1.53;;
11504;SDS011;5809;53.262;10.408;2022-09-23T00:10:54;2.17;;;1.53;;
11504;SDS011;5809;53.262;10.408;2022-09-23T00:13:22;1.60;;;1.50;;
11504;SDS011;5809;53.262;10.408;2022-09-23T00:15:50;1.93;;;1.30;;
11504;SDS011;5809;53.262;10.408;2022-09-23T00:18:17;2.80;;;1.60;;
11504;SDS011;5809;53.262;10.408;2022-09-23T00:20:44;1.40;;;1.30;;
11504;SDS011;5809;53.262;10.408;2022-09-23T00:23:12;2.40;;;1.37;;
11504;SDS011;5809;53.262;10.408;2022-09-23T00:25:39;2.10;;;1.40;;
11504;SDS011;5809;53.262;10.408;2022-09-23T00:28:06;1.60;;;1.50;;
11504;SDS011;5809;53.262;10.408;2022-09-23T00:30:35;3.17;;;1.43;;
11504;SDS011;5809;53.262;10.408;2022-09-23T00:33:02;1.77;;;1.60;;
11504;SDS011;5809;53.262;10.408;2022-09-23T00:35:29;3.80;;;1.60;;
11504;SDS011;5809;53.262;10.408;2022-09-23T00:37:56;1.83;;;1.63;;
11504;SDS011;5809;53.262;10.408;2022-09-23T00:40:23;1.60;;;1.40;;
11504;SDS011;5809;53.262;10.408;2022-09-23T00:42:50;1.60;;;1.40;;
11504;SDS011;5809;53.262;10.408;2022-09-23T00:45:17;4.50;;;1.70;;
11504;SDS011;5809;53.262;10.408;2022-09-23T00:47:46;3.10;;;1.43;;
11504;SDS011;5809;53.262;10.408;2022-09-23T00:50:17;1.63;;;1.53;;
11504;SDS011;5809;53.262;10.408;2022-09-23T00:52:48;2.07;;;1.50;;
11504;SDS011;5809;53.262;10.408;2022-09-23T00:55:16;1.83;;;1.50;;
11504;SDS011;5809;53.262;10.408;2022-09-23T00:57:43;1.80;;;1.53;;
11504;SDS011;5809;53.262;10.408;2022-09-23T01:00:11;1.93;;;1.73;;
11504;SDS011;5809;53.262;10.408;2022-09-23T01:02:39;1.90;;;1.50;;
11504;SDS011;5809;53.262;10.408;2022-09-23T01:05:08;5.33;;;1.63;;
11504;SDS011;5809;53.262;10.408;2022-09-23T01:07:35;2.70;;;1.53;;
11504;SDS011;5809;53.262;10.408;2022-09-23T01:10:03;2.73;;;1.63;;
11504;SDS011;5809;53.262;10.408;2022-09-23T01:15:24;1.87;;;1.60;;
11504;SDS011;5809;53.262;10.408;2022-09-23T01:17:56;5.20;;;1.67;;
11504;SDS011;5809;53.262;10.408;2022-09-23T01:23:15;1.77;;;1.60;;
11504;SDS011;5809;53.262;10.408;2022-09-23T01:25:52;2.00;;;1.37;;
11504;SDS011;5809;53.262;10.408;2022-09-23T01:28:31;4.80;;;1.50;;
11504;SDS011;5809;53.262;10.408;2022-09-23T01:31:13;4.13;;;1.80;;
11504;SDS011;5809;53.262;10.408;2022-09-23T01:33:43;3.73;;;1.63;;
11504;SDS011;5809;53.262;10.408;2022-09-23T01:36:16;1.93;;;1.57;;
11504;SDS011;5809;53.262;10.408;2022-09-23T01:38:51;4.00;;;1.60;;
11504;SDS011;5809;53.262;10.408;2022-09-23T01:41:26;2.87;;;1.70;;
11504;SDS011;5809;53.262;10.408;2022-09-23T01:43:58;1.70;;;1.47;;
11504;SDS011;5809;53.262;10.408;2022-09-23T01:46:30;4.40;;;1.83;;
11504;SDS011;5809;53.262;10.408;2022-09-23T01:48:59;5.27;;;1.87;;
11504;SDS011;5809;53.262;10.408;2022-09-23T01:51:32;2.47;;;1.57;;
11504;SDS011;5809;53.262;10.408;2022-09-23T01:54:02;2.50;;;1.80;;
11504;SDS011;5809;53.262;10.408;2022-09-23T01:56:31;2.60;;;1.73;;
11504;SDS011;5809;53.262;10.408;2022-09-23T01:59:00;1.80;;;1.70;;
11504;SDS011;5809;53.262;10.408;2022-09-23T02:01:35;5.97;;;1.90;;
11504;SDS011;5809;53.262;10.408;2022-09-23T02:04:05;2.00;;;1.80;;
11504;SDS011;5809;53.262;10.408;2022-09-23T02:06:35;2.20;;;1.77;;
11504;SDS011;5809;53.262;10.408;2022-09-23T02:09:06;3.07;;;1.63;;
11504;SDS011;5809;53.262;10.408;2022-09-23T02:11:34;4.40;;;1.90;;
11504;SDS011;5809;53.262;10.408;2022-09-23T02:14:03;2.80;;;2.00;;
11504;SDS011;5809;53.262;10.408;2022-09-23T02:16:38;4.40;;;1.90;;
11504;SDS011;5809;53.262;10.408;2022-09-23T02:19:07;2.27;;;1.87;;
11504;SDS011;5809;53.262;10.408;2022-09-23T02:21:37;2.77;;;2.17;;
11504;SDS011;5809;53.262;10.408;2022-09-23T02:24:07;3.33;;;1.67;;
11504;SDS011;5809;53.262;10.408;2022-09-23T02:26:39;3.17;;;1.70;;
11504;SDS011;5809;53.262;10.408;2022-09-23T02:29:11;4.27;;;1.80;;
11504;SDS011;5809;53.262;10.408;2022-09-23T02:31:46;3.87;;;2.00;;
11504;SDS011;5809;53.262;10.408;2022-09-23T02:34:19;1.87;;;1.70;;
11504;SDS011;5809;53.262;10.408;2022-09-23T02:36:58;5.97;;;1.70;;
11504;SDS011;5809;53.262;10.408;2022-09-23T02:39:29;3.30;;;1.80;;
11504;SDS011;5809;53.262;10.408;2022-09-23T02:41:57;3.40;;;2.10;;
11504;SDS011;5809;53.262;10.408;2022-09-23T02:44:27;5.00;;;1.93;;
11504;SDS011;5809;53.262;10.408;2022-09-23T02:46:58;4.80;;;2.20;;
11504;SDS011;5809;53.262;10.408;2022-09-23T02:49:26;4.60;;;1.90;;
11504;SDS011;5809;53.262;10.408;2022-09-23T02:51:54;2.83;;;1.80;;
11504;SDS011;5809;53.262;10.408;2022-09-23T02:54:21;2.10;;;1.80;;
11504;SDS011;5809;53.262;10.408;2022-09-23T02:56:49;3.70;;;2.03;;
11504;SDS011;5809;53.262;10.408;2022-09-23T02:59:17;2.43;;;2.00;;
11504;SDS011;5809;53.262;10.408;2022-09-23T03:01:50;2.93;;;2.00;;
11504;SDS011;5809;53.262;10.408;2022-09-23T03:04:27;4.73;;;2.30;;
11504;SDS011;5809;53.262;10.408;2022-09-23T03:06:58;2.33;;;1.60;;
11504;SDS011;5809;53.262;10.408;2022-09-23T03:09:28;4.20;;;2.20;;
11504;SDS011;5809;53.262;10.408;2022-09-23T03:11:58;2.67;;;2.10;;
11504;SDS011;5809;53.262;10.408;2022-09-23T03:14:32;5.47;;;2.03;;
11504;SDS011;5809;53.262;10.408;2022-09-23T03:17:03;4.57;;;2.13;;
11504;SDS011;5809;53.262;10.408;2022-09-23T03:19:33;3.17;;;2.13;;
11504;SDS011;5809;53.262;10.408;2022-09-23T03:22:06;2.70;;;2.00;;
11504;SDS011;5809;53.262;10.408;2022-09-23T03:24:36;3.83;;;2.17;;
11504;SDS011;5809;53.262;10.408;2022-09-23T03:27:06;2.23;;;2.00;;
11504;SDS011;5809;53.262;10.408;2022-09-23T03:29:38;7.00;;;1.93;;
11504;SDS011;5809;53.262;10.408;2022-09-23T03:32:06;3.83;;;1.97;;
11504;SDS011;5809;53.262;10.408;2022-09-23T03:34:35;3.87;;;2.10;;
11504;SDS011;5809;53.262;10.408;2022-09-23T03:37:03;2.57;;;1.93;;
11504;SDS011;5809;53.262;10.408;2022-09-23T03:39:37;4.40;;;2.13;;
11504;SDS011;5809;53.262;10.408;2022-09-23T03:42:06;4.53;;;2.00;;
11504;SDS011;5809;53.262;10.408;2022-09-23T03:44:41;4.33;;;2.30;;
11504;SDS011;5809;53.262;10.408;2022-09-23T03:47:09;2.83;;;1.87;;
11504;SDS011;5809;53.262;10.408;2022-09-23T03:49:40;4.73;;;1.97;;
11504;SDS011;5809;53.262;10.408;2022-09-23T03:52:08;3.77;;;2.10;;
11504;SDS011;5809;53.262;10.408;2022-09-23T03:54:35;4.87;;;2.17;;
11504;SDS011;5809;53.262;10.408;2022-09-23T03:57:02;3.67;;;1.80;;
11504;SDS011;5809;53.262;10.408;2022-09-23T03:59:30;3.07;;;2.27;;
11504;SDS011;5809;53.262;10.408;2022-09-23T04:01:57;2.77;;;2.10;;
11504;SDS011;5809;53.262;10.408;2022-09-23T04:04:24;3.33;;;2.10;;
11504;SDS011;5809;53.262;10.408;2022-09-23T04:06:53;2.97;;;2.03;;
11504;SDS011;5809;53.262;10.408;2022-09-23T04:09:21;2.57;;;2.03;;
11504;SDS011;5809;53.262;10.408;2022-09-23T04:11:48;2.10;;;1.90;;
11504;SDS011;5809;53.262;10.408;2022-09-23T04:14:15;5.23;;;1.93;;
11504;SDS011;5809;53.262;10.408;2022-09-23T04:16:43;2.90;;;2.30;;
11504;SDS011;5809;53.262;10.408;2022-09-23T04:19:11;3.03;;;2.20;;
11504;SDS011;5809;53.262;10.408;2022-09-23T04:21:38;4.57;;;2.30;;
11504;SDS011;5809;53.262;10.408;2022-09-23T04:24:07;2.30;;;1.97;;
11504;SDS011;5809;53.262;10.408;2022-09-23T04:26:35;4.17;;;2.43;;
11504;SDS011;5809;53.262;10.408;2022-09-23T04:29:02;2.30;;;2.10;;
11504;SDS011;5809;53.262;10.408;2022-09-23T04:31:29;7.10;;;4.50;;
11504;SDS011;5809;53.262;10.408;2022-09-23T04:33:57;4.30;;;2.27;;
11504;SDS011;5809;53.262;10.408;2022-09-23T04:36:24;3.73;;;2.37;;
11504;SDS011;5809;53.262;10.408;2022-09-23T04:38:51;2.87;;;1.80;;
11504;SDS011;5809;53.262;10.408;2022-09-23T04:41:19;4.17;;;2.20;;
11504;SDS011;5809;53.262;10.408;2022-09-23T04:43:47;3.10;;;2.23;;
11504;SDS011;5809;53.262;10.408;2022-09-23T04:46:14;4.37;;;1.80;;
11504;SDS011;5809;53.262;10.408;2022-09-23T04:48:41;3.27;;;2.17;;
11504;SDS011;5809;53.262;10.408;2022-09-23T04:51:09;2.57;;;1.90;;
11504;SDS011;5809;53.262;10.408;2022-09-23T04:53:37;3.90;;;1.90;;
11504;SDS011;5809;53.262;10.408;2022-09-23T04:56:06;3.70;;;2.03;;
11504;SDS011;5809;53.262;10.408;2022-09-23T04:58:35;3.13;;;2.37;;
11504;SDS011;5809;53.262;10.408;2022-09-23T05:01:09;5.07;;;2.27;;
11504;SDS011;5809;53.262;10.408;2022-09-23T05:03:37;2.17;;;1.70;;
11504;SDS011;5809;53.262;10.408;2022-09-23T05:06:05;2.77;;;1.90;;
11504;SDS011;5809;53.262;10.408;2022-09-23T05:08:32;3.50;;;2.13;;
11504;SDS011;5809;53.262;10.408;2022-09-23T05:11:00;3.43;;;2.30;;
11504;SDS011;5809;53.262;10.408;2022-09-23T05:13:28;4.90;;;2.10;;
11504;SDS011;5809;53.262;10.408;2022-09-23T05:15:58;5.40;;;1.97;;
11504;SDS011;5809;53.262;10.408;2022-09-23T05:18:26;4.20;;;2.43;;
11504;SDS011;5809;53.262;10.408;2022-09-23T05:20:55;3.50;;;2.20;;
11504;SDS011;5809;53.262;10.408;2022-09-23T05:23:23;6.90;;;2.57;;
11504;SDS011;5809;53.262;10.408;2022-09-23T05:25:54;3.93;;;2.40;;
11504;SDS011;5809;53.262;10.408;2022-09-23T05:28:23;3.03;;;2.23;;
11504;SDS011;5809;53.262;10.408;2022-09-23T05:30:52;4.07;;;2.23;;
11504;SDS011;5809;53.262;10.408;2022-09-23T05:33:20;2.90;;;2.33;;
11504;SDS011;5809;53.262;10.408;2022-09-23T05:35:48;3.87;;;2.40;;
11504;SDS011;5809;53.262;10.408;2022-09-23T05:38:15;5.07;;;2.50;;
11504;SDS011;5809;53.262;10.408;2022-09-23T05:40:42;4.93;;;2.70;;
11504;SDS011;5809;53.262;10.408;2022-09-23T05:43:09;4.67;;;2.70;;
11504;SDS011;5809;53.262;10.408;2022-09-23T05:45:36;3.40;;;2.10;;
11504;SDS011;5809;53.262;10.408;2022-09-23T05:48:04;6.90;;;2.40;;
11504;SDS011;5809;53.262;10.408;2022-09-23T05:50:32;3.27;;;2.53;;
11504;SDS011;5809;53.262;10.408;2022-09-23T05:52:59;4.23;;;2.70;;
11504;SDS011;5809;53.262;10.408;2022-09-23T05:55:26;5.30;;;2.60;;
11504;SDS011;5809;53.262;10.408;2022-09-23T05:57:53;3.40;;;2.53;;
11504;SDS011;5809;53.262;10.408;2022-09-23T06:00:20;5.63;;;2.83;;
11504;SDS011;5809;53.262;10.408;2022-09-23T06:02:48;7.30;;;2.60;;
11504;SDS011;5809;53.262;10.408;2022-09-23T06:05:15;3.47;;;2.33;;
11504;SDS011;5809;53.262;10.408;2022-09-23T06:07:43;7.23;;;3.00;;
11504;SDS011;5809;53.262;10.408;2022-09-23T06:10:10;6.07;;;2.63;;
11504;SDS011;5809;53.262;10.408;2022-09-23T06:12:37;5.80;;;2.50;;
11504;SDS011;5809;53.262;10.408;2022-09-23T06:15:06;6.87;;;2.30;;
11504;SDS011;5809;53.262;10.408;2022-09-23T06:17:34;4.63;;;2.70;;
11504;SDS011;5809;53.262;10.408;2022-09-23T06:20:01;4.17;;;2.47;;
11504;SDS011;5809;53.262;10.408;2022-09-23T06:22:29;7.43;;;2.70;;
11504;SDS011;5809;53.262;10.408;2022-09-23T06:24:57;9.93;;;3.33;;
11504;SDS011;5809;53.262;10.408;2022-09-23T06:27:24;4.47;;;2.63;;
11504;SDS011;5809;53.262;10.408;2022-09-23T06:29:52;4.17;;;2.70;;
11504;SDS011;5809;53.262;10.408;2022-09-23T06:32:19;5.57;;;2.83;;
11504;SDS011;5809;53.262;10.408;2022-09-23T06:34:47;4.30;;;2.50;;
11504;SDS011;5809;53.262;10.408;2022-09-23T06:37:14;3.80;;;2.80;;
11504;SDS011;5809;53.262;10.408;2022-09-23T06:39:42;6.23;;;2.93;;
11504;SDS011;5809;53.262;10.408;2022-09-23T06:42:10;4.17;;;2.50;;
11504;SDS011;5809;53.262;10.408;2022-09-23T06:44:37;6.73;;;2.20;;
11504;SDS011;5809;53.262;10.408;2022-09-23T06:47:05;4.10;;;2.60;;
11504;SDS011;5809;53.262;10.408;2022-09-23T06:49:32;5.00;;;2.03;;
11504;SDS011;5809;53.262;10.408;2022-09-23T06:51:59;4.60;;;2.77;;
11504;SDS011;5809;53.262;10.408;2022-09-23T06:54:27;4.43;;;2.50;;
11504;SDS011;5809;53.262;10.408;2022-09-23T06:56:54;3.87;;;2.73;;
11504;SDS011;5809;53.262;10.408;2022-09-23T06:59:23;3.43;;;2.50;;
11504;SDS011;5809;53.262;10.408;2022-09-23T07:01:49;3.47;;;2.33;;
11504;SDS011;5809;53.262;10.408;2022-09-23T07:04:17;4.37;;;2.30;;
11504;SDS011;5809;53.262;10.408;2022-09-23T07:06:44;5.87;;;2.27;;
11504;SDS011;5809;53.262;10.408;2022-09-23T07:09:11;5.73;;;2.20;;
11504;SDS011;5809;53.262;10.408;2022-09-23T07:11:38;3.60;;;2.10;;
11504;SDS011;5809;53.262;10.408;2022-09-23T07:14:05;4.87;;;2.33;;
11504;SDS011;5809;53.262;10.408;2022-09-23T07:16:33;4.33;;;2.20;;
11504;SDS011;5809;53.262;10.408;2022-09-23T07:19:01;5.00;;;2.60;;
11504;SDS011;5809;53.262;10.408;2022-09-23T07:21:28;3.47;;;2.00;;
11504;SDS011;5809;53.262;10.408;2022-09-23T07:23:55;2.17;;;1.97;;
11504;SDS011;5809;53.262;10.408;2022-09-23T07:26:23;3.50;;;2.40;;
11504;SDS011;5809;53.262;10.408;2022-09-23T07:28:54;4.50;;;2.40;;
11504;SDS011;5809;53.262;10.408;2022-09-23T07:31:28;5.80;;;2.17;;
11504;SDS011;5809;53.262;10.408;2022-09-23T07:33:57;3.47;;;2.60;;
11504;SDS011;5809;53.262;10.408;2022-09-23T07:36:26;5.10;;;2.40;;
11504;SDS011;5809;53.262;10.408;2022-09-23T07:38:55;4.23;;;2.43;;
11504;SDS011;5809;53.262;10.408;2022-09-23T07:41:27;2.42;;;2.03;;
11504;SDS011;5809;53.262;10.408;2022-09-23T07:43:55;3.53;;;2.28;;
11504;SDS011;5809;53.262;10.408;2022-09-23T07:46:23;4.80;;;2.85;;
11504;SDS011;5809;53.262;10.408;2022-09-23T07:48:51;2.53;;;1.90;;
11504;SDS011;5809;53.262;10.408;2022-09-23T07:51:21;4.03;;;2.08;;
11504;SDS011;5809;53.262;10.408;2022-09-23T07:53:49;4.53;;;2.10;;
11504;SDS011;5809;53.262;10.408;2022-09-23T07:56:17;4.72;;;2.30;;
11504;SDS011;5809;53.262;10.408;2022-09-23T07:58:45;4.15;;;1.92;;
11504;SDS011;5809;53.262;10.408;2022-09-23T08:01:23;3.30;;;2.28;;
11504;SDS011;5809;53.262;10.408;2022-09-23T08:03:51;4.85;;;2.08;;
11504;SDS011;5809;53.262;10.408;2022-09-23T08:06:18;5.40;;;2.10;;
11504;SDS011;5809;53.262;10.408;2022-09-23T08:08:46;5.18;;;2.10;;
11504;SDS011;5809;53.262;10.408;2022-09-23T08:11:13;4.35;;;1.83;;
11504;SDS011;5809;53.262;10.408;2022-09-23T08:13:41;3.15;;;1.75;;
11504;SDS011;5809;53.262;10.408;2022-09-23T08:16:08;5.60;;;1.92;;
11504;SDS011;5809;53.262;10.408;2022-09-23T08:18:35;2.95;;;1.92;;
11504;SDS011;5809;53.262;10.408;2022-09-23T08:21:02;3.55;;;1.73;;
11504;SDS011;5809;53.262;10.408;2022-09-23T08:23:30;3.75;;;2.00;;
11504;SDS011;5809;53.262;10.408;2022-09-23T08:26:00;2.90;;;1.60;;
11504;SDS011;5809;53.262;10.408;2022-09-23T08:28:27;4.65;;;1.90;;
11504;SDS011;5809;53.262;10.408;2022-09-23T08:30:55;3.78;;;2.17;;
11504;SDS011;5809;53.262;10.408;2022-09-23T08:33:22;2.70;;;1.80;;
11504;SDS011;5809;53.262;10.408;2022-09-23T08:35:49;6.47;;;1.88;;
11504;SDS011;5809;53.262;10.408;2022-09-23T08:38:16;4.45;;;1.88;;
11504;SDS011;5809;53.262;10.408;2022-09-23T08:40:45;5.30;;;1.90;;
11504;SDS011;5809;53.262;10.408;2022-09-23T08:43:18;2.85;;;1.73;;
11504;SDS011;5809;53.262;10.408;2022-09-23T08:45:50;3.60;;;1.80;;
11504;SDS011;5809;53.262;10.408;2022-09-23T08:48:20;4.55;;;1.45;;
11504;SDS011;5809;53.262;10.408;2022-09-23T08:50:52;3.55;;;1.60;;
11504;SDS011;5809;53.262;10.408;2022-09-23T08:53:23;3.20;;;1.45;;
11504;SDS011;5809;53.262;10.408;2022-09-23T08:55:53;3.17;;;1.52;;
11504;SDS011;5809;53.262;10.408;2022-09-23T08:58:27;2.55;;;1.63;;
11504;SDS011;5809;53.262;10.408;2022-09-23T09:01:06;7.35;;;1.67;;
11504;SDS011;5809;53.262;10.408;2022-09-23T09:03:42;5.45;;;1.83;;
11504;SDS011;5809;53.262;10.408;2022-09-23T09:06:11;2.38;;;1.60;;
11504;SDS011;5809;53.262;10.408;2022-09-23T09:08:43;3.78;;;1.75;;
11504;SDS011;5809;53.262;10.408;2022-09-23T09:11:16;3.35;;;1.63;;
11504;SDS011;5809;53.262;10.408;2022-09-23T09:13:47;4.47;;;1.63;;
11504;SDS011;5809;53.262;10.408;2022-09-23T09:16:25;6.57;;;1.60;;
11504;SDS011;5809;53.262;10.408;2022-09-23T09:19:06;6.45;;;5.53;;
11504;SDS011;5809;53.262;10.408;2022-09-23T09:21:41;4.28;;;3.55;;
11504;SDS011;5809;53.262;10.408;2022-09-23T09:24:15;3.22;;;2.05;;
11504;SDS011;5809;53.262;10.408;2022-09-23T09:26:43;3.65;;;1.42;;
11504;SDS011;5809;53.262;10.408;2022-09-23T09:29:13;6.03;;;1.60;;
11504;SDS011;5809;53.262;10.408;2022-09-23T09:31:42;2.08;;;1.27;;
11504;SDS011;5809;53.262;10.408;2022-09-23T09:34:11;4.57;;;3.85;;
11504;SDS011;5809;53.262;10.408;2022-09-23T09:36:47;2.25;;;1.50;;
11504;SDS011;5809;53.262;10.408;2022-09-23T09:39:15;1.70;;;1.27;;
11504;SDS011;5809;53.262;10.408;2022-09-23T09:41:44;3.92;;;1.88;;
11504;SDS011;5809;53.262;10.408;2022-09-23T09:44:19;2.22;;;1.63;;
11504;SDS011;5809;53.262;10.408;2022-09-23T09:46:50;2.78;;;2.05;;
11504;SDS011;5809;53.262;10.408;2022-09-23T09:49:24;3.20;;;1.48;;
11504;SDS011;5809;53.262;10.408;2022-09-23T09:52:13;5.35;;;1.70;;
11504;SDS011;5809;53.262;10.408;2022-09-23T09:54:46;4.75;;;1.40;;
11504;SDS011;5809;53.262;10.408;2022-09-23T09:57:16;2.50;;;1.27;;
11504;SDS011;5809;53.262;10.408;2022-09-23T09:59:53;3.47;;;1.50;;
11504;SDS011;5809;53.262;10.408;2022-09-23T10:02:22;3.20;;;1.40;;
11504;SDS011;5809;53.262;10.408;2022-09-23T10:04:54;2.38;;;1.20;;
11504;SDS011;5809;53.262;10.408;2022-09-23T10:07:25;1.50;;;1.40;;
11504;SDS011;5809;53.262;10.408;2022-09-23T10:09:53;2.33;;;1.60;;
11504;SDS011;5809;53.262;10.408;2022-09-23T10:12:20;2.83;;;1.25;;
11504;SDS011;5809;53.262;10.408;2022-09-23T10:14:49;4.80;;;1.60;;
11504;SDS011;5809;53.262;10.408;2022-09-23T10:17:20;3.97;;;1.65;;
11504;SDS011;5809;53.262;10.408;2022-09-23T10:19:48;3.42;;;1.30;;
11504;SDS011;5809;53.262;10.408;2022-09-23T10:22:23;1.90;;;1.40;;
11504;SDS011;5809;53.262;10.408;2022-09-23T10:24:54;1.88;;;1.20;;
11504;SDS011;5809;53.262;10.408;2022-09-23T10:27:25;1.75;;;1.20;;
11504;SDS011;5809;53.262;10.408;2022-09-23T10:29:56;3.33;;;1.30;;
11504;SDS011;5809;53.262;10.408;2022-09-23T10:32:27;1.52;;;1.10;;
11504;SDS011;5809;53.262;10.408;2022-09-23T10:34:56;2.53;;;1.30;;
11504;SDS011;5809;53.262;10.408;2022-09-23T10:37:29;2.58;;;1.30;;
11504;SDS011;5809;53.262;10.408;2022-09-23T10:40:09;1.77;;;1.33;;
11504;SDS011;5809;53.262;10.408;2022-09-23T10:42:59;1.65;;;1.13;;
11504;SDS011;5809;53.262;10.408;2022-09-23T10:46:04;2.38;;;1.20;;
11504;SDS011;5809;53.262;10.408;2022-09-23T10:48:54;2.97;;;1.15;;
11504;SDS011;5809;53.262;10.408;2022-09-23T10:52:02;3.78;;;1.20;;
11504;SDS011;5809;53.262;10.408;2022-09-23T10:54:52;2.50;;;1.42;;
11504;SDS011;5809;53.262;10.408;2022-09-23T10:57:24;2.47;;;1.25;;
11504;SDS011;5809;53.262;10.408;2022-09-23T11:00:16;2.80;;;1.10;;
11504;SDS011;5809;53.262;10.408;2022-09-23T11:02:50;2.65;;;1.45;;
11504;SDS011;5809;53.262;10.408;2022-09-23T11:05:27;3.63;;;1.48;;
11504;SDS011;5809;53.262;10.408;2022-09-23T11:08:00;1.23;;;1.13;;
11504;SDS011;5809;53.262;10.408;2022-09-23T11:10:57;3.40;;;1.50;;
11504;SDS011;5809;53.262;10.408;2022-09-23T11:13:29;1.80;;;1.30;;
11504;SDS011;5809;53.262;10.408;2022-09-23T11:16:01;2.05;;;1.10;;
11504;SDS011;5809;53.262;10.408;2022-09-23T11:21:37;1.63;;;1.20;;
11504;SDS011;5809;53.262;10.408;2022-09-23T11:24:12;1.23;;;1.13;;
11504;SDS011;5809;53.262;10.408;2022-09-23T11:26:54;2.50;;;1.30;;
11504;SDS011;5809;53.262;10.408;2022-09-23T11:29:33;3.83;;;1.30;;
11504;SDS011;5809;53.262;10.408;2022-09-23T11:32:09;3.80;;;1.30;;
11504;SDS011;5809;53.262;10.408;2022-09-23T11:34:59;1.77;;;1.45;;
11504;SDS011;5809;53.262;10.408;2022-09-23T11:37:30;5.55;;;4.13;;
11504;SDS011;5809;53.262;10.408;2022-09-23T11:39:59;3.90;;;1.38;;
11504;SDS011;5809;53.262;10.408;2022-09-23T11:42:28;1.75;;;1.40;;
11504;SDS011;5809;53.262;10.408;2022-09-23T11:44:57;3.25;;;1.40;;
11504;SDS011;5809;53.262;10.408;2022-09-23T11:47:26;1.98;;;1.42;;
11504;SDS011;5809;53.262;10.408;2022-09-23T11:49:57;2.22;;;1.40;;
11504;SDS011;5809;53.262;10.408;2022-09-23T11:52:26;1.60;;;1.20;;
11504;SDS011;5809;53.262;10.408;2022-09-23T11:54:56;1.55;;;1.30;;
11504;SDS011;5809;53.262;10.408;2022-09-23T11:57:26;1.48;;;1.30;;
11504;SDS011;5809;53.262;10.408;2022-09-23T12:00:02;1.55;;;1.23;;
11504;SDS011;5809;53.262;10.408;2022-09-23T12:02:31;1.45;;;1.33;;
11504;SDS011;5809;53.262;10.408;2022-09-23T12:05:00;1.95;;;1.65;;
11504;SDS011;5809;53.262;10.408;2022-09-23T12:07:32;2.67;;;1.30;;
11504;SDS011;5809;53.262;10.408;2022-09-23T12:10:06;3.67;;;1.42;;
11504;SDS011;5809;53.262;10.408;2022-09-23T12:12:35;2.60;;;1.40;;
11504;SDS011;5809;53.262;10.408;2022-09-23T12:15:09;2.13;;;1.60;;
11504;SDS011;5809;53.262;10.408;2022-09-23T12:17:51;1.48;;;1.35;;
11504;SDS011;5809;53.262;10.408;2022-09-23T12:20:25;2.22;;;1.40;;
11504;SDS011;5809;53.262;10.408;2022-09-23T12:22:59;4.10;;;1.42;;
11504;SDS011;5809;53.262;10.408;2022-09-23T12:25:41;4.22;;;1.50;;
11504;SDS011;5809;53.262;10.408;2022-09-23T12:28:11;1.65;;;1.45;;
11504;SDS011;5809;53.262;10.408;2022-09-23T12:30:42;2.90;;;1.50;;
11504;SDS011;5809;53.262;10.408;2022-09-23T12:33:14;2.25;;;1.35;;
11504;SDS011;5809;53.262;10.408;2022-09-23T12:35:46;2.17;;;1.30;;
11504;SDS011;5809;53.262;10.408;2022-09-23T12:38:13;2.00;;;1.30;;
11504;SDS011;5809;53.262;10.408;2022-09-23T12:40:47;2.50;;;1.45;;
11504;SDS011;5809;53.262;10.408;2022-09-23T12:43:16;2.03;;;1.30;;
11504;SDS011;5809;53.262;10.408;2022-09-23T12:45:44;3.33;;;1.45;;
11504;SDS011;5809;53.262;10.408;2022-09-23T12:48:25;2.35;;;1.63;;
11504;SDS011;5809;53.262;10.408;2022-09-23T12:50:55;1.75;;;1.40;;
11504;SDS011;5809;53.262;10.408;2022-09-23T12:56:23;1.83;;;1.42;;
11504;SDS011;5809;53.262;10.408;2022-09-23T12:58:58;1.83;;;1.48;;
11504;SDS011;5809;53.262;10.408;2022-09-23T13:01:26;1.20;;;1.10;;
11504;SDS011;5809;53.262;10.408;2022-09-23T13:03:54;2.58;;;1.30;;
11504;SDS011;5809;53.262;10.408;2022-09-23T13:06:40;2.72;;;1.30;;
11504;SDS011;5809;53.262;10.408;2022-09-23T13:09:09;1.92;;;1.23;;
11504;SDS011;5809;53.262;10.408;2022-09-23T13:11:42;2.42;;;1.33;;
11504;SDS011;5809;53.262;10.408;2022-09-23T13:14:13;1.10;;;1.00;;
11504;SDS011;5809;53.262;10.408;2022-09-23T13:16:43;1.90;;;1.40;;
11504;SDS011;5809;53.262;10.408;2022-09-23T13:22:00;1.77;;;1.27;;
11504;SDS011;5809;53.262;10.408;2022-09-23T13:24:41;3.10;;;1.40;;
11504;SDS011;5809;53.262;10.408;2022-09-23T13:27:15;2.03;;;1.20;;
11504;SDS011;5809;53.262;10.408;2022-09-23T13:29:44;3.97;;;1.30;;
11504;SDS011;5809;53.262;10.408;2022-09-23T13:32:13;2.10;;;1.23;;
11504;SDS011;5809;53.262;10.408;2022-09-23T13:34:41;4.07;;;1.20;;
11504;SDS011;5809;53.262;10.408;2022-09-23T13:37:15;4.03;;;1.60;;
11504;SDS011;5809;53.262;10.408;2022-09-23T13:39:43;1.75;;;1.40;;
11504;SDS011;5809;53.262;10.408;2022-09-23T13:42:11;2.33;;;1.50;;
11504;SDS011;5809;53.262;10.408;2022-09-23T13:44:44;2.47;;;1.40;;
11504;SDS011;5809;53.262;10.408;2022-09-23T13:47:11;2.90;;;1.50;;
11504;SDS011;5809;53.262;10.408;2022-09-23T13:49:39;3.97;;;1.50;;
11504;SDS011;5809;53.262;10.408;2022-09-23T13:52:06;1.70;;;1.40;;
11504;SDS011;5809;53.262;10.408;2022-09-23T13:54:49;1.50;;;1.38;;
11504;SDS011;5809;53.262;10.408;2022-09-23T13:57:23;2.53;;;1.50;;
11504;SDS011;5809;53.262;10.408;2022-09-23T13:59:52;2.30;;;1.30;;
11504;SDS011;5809;53.262;10.408;2022-09-23T14:02:19;2.97;;;1.27;;
11504;SDS011;5809;53.262;10.408;2022-09-23T14:04:49;2.15;;;1.40;;
11504;SDS011;5809;53.262;10.408;2022-09-23T14:07:17;3.70;;;1.55;;
11504;SDS011;5809;53.262;10.408;2022-09-23T14:09:45;2.85;;;1.38;;
11504;SDS011;5809;53.262;10.408;2022-09-23T14:12:13;2.88;;;1.30;;
11504;SDS011;5809;53.262;10.408;2022-09-23T14:14:46;1.95;;;1.70;;
11504;SDS011;5809;53.262;10.408;2022-09-23T14:17:16;5.68;;;1.33;;
11504;SDS011;5809;53.262;10.408;2022-09-23T14:19:44;3.17;;;1.27;;
11504;SDS011;5809;53.262;10.408;2022-09-23T14:22:19;1.88;;;1.50;;
11504;SDS011;5809;53.262;10.408;2022-09-23T14:24:47;3.13;;;1.50;;
11504;SDS011;5809;53.262;10.408;2022-09-23T14:27:16;3.95;;;1.40;;
11504;SDS011;5809;53.262;10.408;2022-09-23T14:29:45;3.08;;;1.30;;
11504;SDS011;5809;53.262;10.408;2022-09-23T14:32:13;2.22;;;1.23;;
11504;SDS011;5809;53.262;10.408;2022-09-23T14:34:44;2.78;;;1.30;;
11504;SDS011;5809;53.262;10.408;2022-09-23T14:37:21;3.50;;;1.42;;
11504;SDS011;5809;53.262;10.408;2022-09-23T14:40:08;1.85;;;1.20;;
11504;SDS011;5809;53.262;10.408;2022-09-23T14:42:37;4.10;;;1.40;;
11504;SDS011;5809;53.262;10.408;2022-09-23T14:45:08;1.98;;;1.20;;
11504;SDS011;5809;53.262;10.408;2022-09-23T14:47:40;2.70;;;1.52;;
11504;SDS011;5809;53.262;10.408;2022-09-23T14:50:19;1.42;;;1.33;;
11504;SDS011;5809;53.262;10.408;2022-09-23T14:53:04;3.22;;;1.55;;
11504;SDS011;5809;53.262;10.408;2022-09-23T14:55:31;5.10;;;1.48;;
11504;SDS011;5809;53.262;10.408;2022-09-23T14:58:01;1.75;;;1.30;;
11504;SDS011;5809;53.262;10.408;2022-09-23T15:00:29;2.08;;;1.40;;
11504;SDS011;5809;53.262;10.408;2022-09-23T15:02:57;4.10;;;1.40;;
11504;SDS011;5809;53.262;10.408;2022-09-23T15:05:30;2.78;;;1.50;;
11504;SDS011;5809;53.262;10.408;2022-09-23T15:08:04;3.38;;;1.48;;
11504;SDS011;5809;53.262;10.408;2022-09-23T15:10:32;2.25;;;1.50;;
11504;SDS011;5809;53.262;10.408;2022-09-23T15:13:03;2.85;;;1.30;;
11504;SDS011;5809;53.262;10.408;2022-09-23T15:15:31;1.95;;;1.50;;
11504;SDS011;5809;53.262;10.408;2022-09-23T15:18:03;1.63;;;1.42;;
11504;SDS011;5809;53.262;10.408;2022-09-23T15:20:33;1.40;;;1.30;;
11504;SDS011;5809;53.262;10.408;2022-09-23T15:23:01;3.33;;;1.50;;